Webster Park, Illinois
Current Conditions -  °F | °C
As of 10:15 AM on Saturday 25 Oct 2014 (Local Time) from KVYS Reporting Station
Haze Haze  
Wind Chill: 60°   Ceiling: 600
Heat Index: 60°   Visibility: 5mi
Dew Point: 57°   Wind: 12mph
Humidity: 90%   Direction: 300°WNW
Pressure: 30.01"   Gusts: NA
Location:  41.3345°N, 89.2159°W
Report Text: KVYS 251515Z AUTO 30010KT 5SM BR BKN006 16/14 A3001 RMK AO2 T01550139
Loading
Personal Weather Stations






























Interactive Weather Map
Tropical Storm Tracking
New forecast layout! Learn more

10-Day Weather Forecast

Advertisements
Track Severe Weather on mobile